createdAt,value
2023-03-21T00:01:53.167Z,25.73
2023-03-21T00:04:22.106Z,27.77
2023-03-21T00:06:50.843Z,24.13
2023-03-21T00:09:19.602Z,24.90
2023-03-21T00:11:49.790Z,24.07
2023-03-21T00:14:20.674Z,27.57
2023-03-21T00:16:50.933Z,229.13
2023-03-21T00:19:21.097Z,304.57
2023-03-21T00:22:06.526Z,367.83
2023-03-21T00:24:36.866Z,280.03
2023-03-21T00:27:43.076Z,219.17
2023-03-21T00:29:56.335Z,42.60
2023-03-21T00:32:24.924Z,28.57
2023-03-21T00:35:21.567Z,28.47
2023-03-21T00:37:41.954Z,29.30
2023-03-21T00:40:32.930Z,24.07
2023-03-21T00:43:04.966Z,27.33
2023-03-21T00:45:33.787Z,28.70
2023-03-21T00:48:02.689Z,28.03
2023-03-21T00:50:32.656Z,29.43
2023-03-21T00:53:01.317Z,31.40
2023-03-21T00:55:30.127Z,30.00
2023-03-21T00:58:02.202Z,26.70
2023-03-21T01:00:33.569Z,26.33
2023-03-21T01:03:21.295Z,28.03
2023-03-21T01:06:08.348Z,30.37
2023-03-21T01:08:51.762Z,31.47
2023-03-21T01:11:23.404Z,30.40
2023-03-21T01:13:59.743Z,34.07
2023-03-21T01:16:35.232Z,34.07
2023-03-21T01:19:06.947Z,34.20
2023-03-21T01:21:36.050Z,27.37
2023-03-21T01:24:04.923Z,33.63
2023-03-21T01:26:33.708Z,29.43
2023-03-21T01:29:02.283Z,32.43
2023-03-21T01:31:30.860Z,33.07
2023-03-21T01:34:00.998Z,30.47
2023-03-21T01:36:29.497Z,31.00
2023-03-21T01:38:57.965Z,31.00
2023-03-21T01:41:41.951Z,29.03
2023-03-21T01:44:17.568Z,30.83
2023-03-21T01:47:00.397Z,30.50
2023-03-21T01:49:46.453Z,29.20
2023-03-21T01:52:33.408Z,26.87
2023-03-21T01:55:05.969Z,26.00
2023-03-21T01:57:51.853Z,24.07
2023-03-21T02:00:29.852Z,22.43
2023-03-21T02:03:11.585Z,21.00
2023-03-21T02:05:56.087Z,20.30
2023-03-21T02:08:36.861Z,23.43
2023-03-21T02:11:10.204Z,21.20
2023-03-21T02:13:38.758Z,23.10
2023-03-21T02:16:15.583Z,23.07
2023-03-21T02:18:51.982Z,21.87
2023-03-21T02:22:00.665Z,22.40
2023-03-21T02:24:59.633Z,21.10
2023-03-21T02:27:36.363Z,24.63
2023-03-21T02:30:45.541Z,22.20
2023-03-21T02:33:50.064Z,20.33
2023-03-21T02:36:27.185Z,24.00
2023-03-21T02:39:13.430Z,24.17
2023-03-21T02:41:50.614Z,23.43
2023-03-21T02:44:27.606Z,22.43
2023-03-21T02:47:05.859Z,21.60
2023-03-21T02:49:43.508Z,22.53
2023-03-21T02:52:35.589Z,25.63
2023-03-21T02:55:14.415Z,22.80
2023-03-21T02:57:46.544Z,22.10
2023-03-21T03:00:20.118Z,23.60
2023-03-21T03:02:54.596Z,25.23
2023-03-21T03:05:30.332Z,22.33
2023-03-21T03:08:10.476Z,24.07
2023-03-21T03:10:53.278Z,24.83
2023-03-21T03:13:34.208Z,25.17
2023-03-21T03:16:12.151Z,23.87
2023-03-21T03:18:48.402Z,28.20
2023-03-21T03:21:22.332Z,27.53
2023-03-21T03:23:54.412Z,28.10
2023-03-21T03:26:27.952Z,27.43
2023-03-21T03:29:01.617Z,26.53
2023-03-21T03:31:35.040Z,27.20
2023-03-21T03:34:08.911Z,25.80
2023-03-21T03:36:41.339Z,26.13
2023-03-21T03:39:12.756Z,25.57
2023-03-21T03:42:07.888Z,28.13
2023-03-21T03:44:38.328Z,26.93
2023-03-21T03:47:11.901Z,27.93
2023-03-21T03:49:49.968Z,27.80
2023-03-21T03:52:22.326Z,28.23
2023-03-21T03:54:52.623Z,26.43
2023-03-21T03:57:23.241Z,26.60
2023-03-21T03:59:51.947Z,26.50
2023-03-21T04:02:20.685Z,27.73
2023-03-21T04:04:53.224Z,26.90
2023-03-21T04:07:22.609Z,28.37
2023-03-21T04:09:52.346Z,29.57
2023-03-21T04:12:22.333Z,29.27
2023-03-21T04:14:51.933Z,27.43
2023-03-21T04:17:21.822Z,29.57
2023-03-21T04:19:57.702Z,29.80
2023-03-21T04:22:34.078Z,29.50
2023-03-21T04:25:02.867Z,28.40
2023-03-21T04:27:33.605Z,28.93
2023-03-21T04:30:02.315Z,30.10
2023-03-21T04:32:34.222Z,30.70
2023-03-21T04:35:02.744Z,33.83
2023-03-21T04:37:34.129Z,30.50
2023-03-21T04:40:06.784Z,29.27
2023-03-21T04:42:39.266Z,31.83
2023-03-21T04:45:09.182Z,33.77
2023-03-21T04:47:37.802Z,30.27
2023-03-21T04:50:07.217Z,31.30
2023-03-21T04:52:35.830Z,30.17
2023-03-21T04:55:04.588Z,31.23
2023-03-21T04:57:33.191Z,31.43
2023-03-21T05:00:03.373Z,31.80
2023-03-21T05:02:31.806Z,31.77
2023-03-21T05:05:00.470Z,33.03
2023-03-21T05:07:28.936Z,32.17
2023-03-21T05:09:57.550Z,29.23
2023-03-21T05:12:26.214Z,34.00
2023-03-21T05:14:55.001Z,32.70
2023-03-21T05:17:25.178Z,31.63
2023-03-21T05:19:54.325Z,33.83
2023-03-21T05:22:24.477Z,33.70
2023-03-21T05:24:55.656Z,32.53
2023-03-21T05:27:36.019Z,32.33
2023-03-21T05:30:07.643Z,31.60
2023-03-21T05:32:37.814Z,32.73
2023-03-21T05:35:07.254Z,30.83
2023-03-21T05:37:35.859Z,33.70
2023-03-21T05:40:05.990Z,36.23
2023-03-21T05:42:34.780Z,35.63
2023-03-21T05:45:03.413Z,36.13
2023-03-21T05:47:32.844Z,32.93
2023-03-21T05:50:03.378Z,35.10
2023-03-21T05:52:32.200Z,34.90
2023-03-21T05:55:00.866Z,34.17
2023-03-21T05:57:29.978Z,34.53
2023-03-21T05:59:58.861Z,33.27
2023-03-21T06:02:27.614Z,33.70
2023-03-21T06:04:56.907Z,32.03
2023-03-21T06:07:26.934Z,32.80
2023-03-21T06:09:55.480Z,35.77
2023-03-21T06:12:24.084Z,36.93
2023-03-21T06:14:52.768Z,33.03
2023-03-21T06:17:26.704Z,33.10
2023-03-21T06:19:55.980Z,32.20
2023-03-21T06:22:24.792Z,32.47
2023-03-21T06:24:54.905Z,31.97
2023-03-21T06:27:23.722Z,32.53
2023-03-21T06:29:52.395Z,32.50
2023-03-21T06:32:21.193Z,36.70
2023-03-21T06:34:50.189Z,32.13
2023-03-21T06:37:19.087Z,35.73
2023-03-21T06:39:48.290Z,34.77
2023-03-21T06:42:18.402Z,34.43
2023-03-21T06:44:47.115Z,38.10
2023-03-21T06:47:16.165Z,33.00
2023-03-21T06:49:45.003Z,34.33
2023-03-21T06:52:13.704Z,33.83
2023-03-21T06:54:42.617Z,31.83
2023-03-21T06:57:11.798Z,32.03
2023-03-21T06:59:43.158Z,32.37
2023-03-21T07:02:12.307Z,33.40
2023-03-21T07:04:41.115Z,34.50
2023-03-21T07:07:09.828Z,31.00
2023-03-21T07:09:38.915Z,31.27
2023-03-21T07:12:07.622Z,33.07
2023-03-21T07:14:43.496Z,30.27
2023-03-21T07:17:14.363Z,33.30
2023-03-21T07:19:44.822Z,32.13
2023-03-21T07:22:13.529Z,31.10
2023-03-21T07:24:42.442Z,29.03
2023-03-21T07:27:11.219Z,27.23
2023-03-21T07:29:39.943Z,28.53
2023-03-21T07:32:08.608Z,24.60
2023-03-21T07:34:38.724Z,23.33
2023-03-21T07:37:07.722Z,26.63
2023-03-21T07:39:37.038Z,27.37
2023-03-21T07:42:06.031Z,23.63
2023-03-21T07:44:35.833Z,27.80
2023-03-21T07:47:04.479Z,25.53
2023-03-21T07:49:33.056Z,23.03
2023-03-21T07:52:04.839Z,23.27
2023-03-21T07:54:33.971Z,23.20
2023-03-21T07:57:02.482Z,20.83
2023-03-21T07:59:30.946Z,21.20
2023-03-21T08:01:59.564Z,19.37
2023-03-21T08:04:28.248Z,20.23
2023-03-21T08:06:57.669Z,19.03
2023-03-21T08:09:28.404Z,14.07
2023-03-21T08:11:58.420Z,14.63
2023-03-21T08:14:27.104Z,14.20
2023-03-21T08:16:55.721Z,14.90
2023-03-21T08:19:24.700Z,17.83
2023-03-21T08:21:53.485Z,13.60
2023-03-21T08:24:22.191Z,15.40
2023-03-21T08:26:52.291Z,14.67
2023-03-21T08:29:21.804Z,13.60
2023-03-21T08:31:50.700Z,23.67
2023-03-21T08:34:19.851Z,22.97
2023-03-21T08:36:48.525Z,22.50
2023-03-21T08:39:17.398Z,23.53
2023-03-21T08:41:46.201Z,26.20
2023-03-21T08:44:17.301Z,22.87
2023-03-21T08:46:45.942Z,26.63
2023-03-21T08:49:17.070Z,24.50
2023-03-21T08:51:46.277Z,23.03
2023-03-21T08:54:21.723Z,24.30
2023-03-21T08:56:50.714Z,24.50
2023-03-21T08:59:20.854Z,23.87
2023-03-21T09:01:49.477Z,25.00
2023-03-21T09:04:19.210Z,22.97
2023-03-21T09:06:49.073Z,19.83
2023-03-21T09:09:18.345Z,23.37
2023-03-21T09:11:46.962Z,24.63
2023-03-21T09:14:15.842Z,26.23
2023-03-21T09:16:46.383Z,24.63
2023-03-21T09:19:15.592Z,21.20
2023-03-21T09:21:44.496Z,22.27
2023-03-21T09:24:13.580Z,20.83
2023-03-21T09:26:44.341Z,22.93
2023-03-21T09:29:13.227Z,20.97
2023-03-21T09:31:44.040Z,22.97
2023-03-21T09:34:14.676Z,21.47
2023-03-21T09:36:44.441Z,21.87
2023-03-21T09:39:13.489Z,19.60
2023-03-21T09:42:07.355Z,19.10
2023-03-21T09:44:56.884Z,18.33
2023-03-21T09:47:29.414Z,21.73
2023-03-21T09:50:14.001Z,23.77
2023-03-21T09:52:49.900Z,26.00
2023-03-21T09:55:21.616Z,27.33
2023-03-21T09:57:54.432Z,27.87
2023-03-21T10:00:29.898Z,29.23
2023-03-21T10:03:01.958Z,33.83
2023-03-21T10:05:34.544Z,34.00
2023-03-21T10:08:08.174Z,30.70
2023-03-21T10:10:39.509Z,31.07
2023-03-21T10:13:17.122Z,31.37
2023-03-21T10:15:45.875Z,31.77
2023-03-21T10:18:22.708Z,29.67
2023-03-21T10:20:53.636Z,28.87
2023-03-21T10:23:27.136Z,33.03
2023-03-21T10:25:58.910Z,30.73
2023-03-21T10:28:34.534Z,26.00
2023-03-21T10:31:09.873Z,27.10
2023-03-21T10:33:40.293Z,22.53
2023-03-21T10:36:14.238Z,31.33
2023-03-21T10:38:47.580Z,25.43
2023-03-21T10:41:16.218Z,23.77
2023-03-21T10:43:47.054Z,25.33
2023-03-21T10:46:19.289Z,24.30
2023-03-21T10:48:53.551Z,24.30
2023-03-21T10:51:28.603Z,21.93
2023-03-21T10:53:59.840Z,24.23
2023-03-21T10:56:30.618Z,22.53
2023-03-21T10:59:02.086Z,25.83
2023-03-21T11:01:36.848Z,27.03
2023-03-21T11:04:10.714Z,23.90
2023-03-21T11:06:46.957Z,22.23
2023-03-21T11:09:17.616Z,22.40
2023-03-21T11:11:53.022Z,21.83
2023-03-21T11:14:34.294Z,23.43
2023-03-21T11:17:02.866Z,19.77
2023-03-21T11:19:37.923Z,23.90
2023-03-21T11:22:09.493Z,19.93
2023-03-21T11:24:38.238Z,19.30
2023-03-21T11:27:09.819Z,21.40
2023-03-21T11:29:41.459Z,22.83
2023-03-21T11:32:15.622Z,24.07
2023-03-21T11:34:49.011Z,24.90
2023-03-21T11:37:26.473Z,18.20
2023-03-21T11:40:06.636Z,18.47
2023-03-21T11:42:43.711Z,20.47
2023-03-21T11:45:17.999Z,24.67
2023-03-21T11:47:47.255Z,20.43
2023-03-21T11:50:22.737Z,21.90
2023-03-21T11:53:01.196Z,24.77
2023-03-21T11:55:42.238Z,25.47
2023-03-21T11:58:30.996Z,23.40
2023-03-21T12:01:10.371Z,21.83
2023-03-21T12:04:18.684Z,20.20
2023-03-21T12:06:55.588Z,23.07
2023-03-21T12:09:41.592Z,24.40
2023-03-21T12:12:38.049Z,21.57
2023-03-21T12:15:14.755Z,25.77
2023-03-21T12:17:55.370Z,24.17
2023-03-21T12:20:41.837Z,26.60
2023-03-21T12:23:24.994Z,28.10
2023-03-21T12:26:14.430Z,25.43
2023-03-21T12:28:58.652Z,25.77
2023-03-21T12:31:34.964Z,25.20
2023-03-21T12:34:20.113Z,24.63
2023-03-21T12:37:09.203Z,25.60
2023-03-21T12:39:40.622Z,23.37
2023-03-21T12:42:39.681Z,26.03
2023-03-21T12:45:17.288Z,23.50
2023-03-21T12:47:51.240Z,24.27
2023-03-21T12:50:24.223Z,26.40
2023-03-21T12:52:57.348Z,23.57
2023-03-21T12:55:29.362Z,25.00
2023-03-21T12:58:04.886Z,24.60
2023-03-21T13:00:39.859Z,27.17
2023-03-21T13:03:18.298Z,27.70
2023-03-21T13:05:53.225Z,28.70
2023-03-21T13:08:27.373Z,24.97
2023-03-21T13:10:59.017Z,25.70
2023-03-21T13:13:37.038Z,23.47
2023-03-21T13:16:11.268Z,24.27
2023-03-21T13:18:53.694Z,28.50
2023-03-21T13:21:40.799Z,21.07
2023-03-21T13:24:21.529Z,24.23
2023-03-21T13:26:52.290Z,25.10
2023-03-21T13:29:28.594Z,23.97
2023-03-21T13:32:00.615Z,23.47
2023-03-21T13:34:29.262Z,25.70
2023-03-21T13:37:00.992Z,21.53
2023-03-21T13:39:33.075Z,21.40
2023-03-21T13:42:07.216Z,21.30
2023-03-21T13:44:43.543Z,31.23
2023-03-21T13:47:46.185Z,26.93
2023-03-21T13:50:36.736Z,21.80
2023-03-21T13:53:34.796Z,21.30
2023-03-21T13:56:20.622Z,19.67
2023-03-21T13:58:59.992Z,16.37
2023-03-21T14:01:42.013Z,18.90
2023-03-21T14:04:17.628Z,18.07
2023-03-21T14:06:52.363Z,15.80
2023-03-21T14:09:27.403Z,16.20
2023-03-21T14:12:03.881Z,17.33
2023-03-21T14:14:40.034Z,15.80
2023-03-21T14:17:15.732Z,17.37
2023-03-21T14:19:44.385Z,20.60
2023-03-21T14:22:14.601Z,19.37
2023-03-21T14:24:49.388Z,15.30
2023-03-21T14:27:18.282Z,19.10
2023-03-21T14:29:49.058Z,20.57
2023-03-21T14:32:24.166Z,28.77
2023-03-21T14:34:53.102Z,24.23
2023-03-21T14:37:34.642Z,17.93
2023-03-21T14:40:09.280Z,19.10
2023-03-21T14:42:39.656Z,19.20
2023-03-21T14:45:20.765Z,19.67
2023-03-21T14:48:02.771Z,19.57
2023-03-21T14:50:40.306Z,20.17
2023-03-21T14:53:13.401Z,21.33
2023-03-21T14:55:47.724Z,24.17
2023-03-21T14:58:18.355Z,23.30
2023-03-21T15:00:50.384Z,23.20
2023-03-21T15:03:23.816Z,21.93
2023-03-21T15:05:52.549Z,17.93
2023-03-21T15:08:24.506Z,16.77
2023-03-21T15:11:06.857Z,15.03
2023-03-21T15:13:39.154Z,12.33
2023-03-21T15:16:09.471Z,14.70
2023-03-21T15:18:41.547Z,17.50
2023-03-21T15:21:16.834Z,16.40
2023-03-21T15:23:48.519Z,20.23
2023-03-21T15:26:21.065Z,19.83
2023-03-21T15:28:52.074Z,19.27
2023-03-21T15:31:23.099Z,21.73
2023-03-21T15:33:56.685Z,25.33
2023-03-21T15:36:28.698Z,23.00
2023-03-21T15:38:57.439Z,20.47
2023-03-21T15:41:30.212Z,114.13
2023-03-21T15:44:15.237Z,67.93
2023-03-21T15:46:46.419Z,77.63
2023-03-21T15:49:27.486Z,73.87
2023-03-21T15:52:01.017Z,93.47
2023-03-21T15:54:32.564Z,42.73
2023-03-21T15:57:09.529Z,22.00
2023-03-21T15:59:42.266Z,35.27
2023-03-21T16:02:21.875Z,29.97
2023-03-21T16:04:59.787Z,28.63
2023-03-21T16:07:28.639Z,23.37
2023-03-21T16:10:02.589Z,20.53
2023-03-21T16:12:31.325Z,20.60
2023-03-21T16:14:59.889Z,17.50
2023-03-21T16:17:35.851Z,20.80
2023-03-21T16:20:06.794Z,20.07
2023-03-21T16:22:36.110Z,18.10
2023-03-21T16:25:05.440Z,17.37
2023-03-21T16:27:34.162Z,18.47
2023-03-21T16:30:02.848Z,21.03
2023-03-21T16:32:31.446Z,19.83
2023-03-21T16:35:00.432Z,20.30
2023-03-21T16:37:30.272Z,22.03
2023-03-21T16:39:59.047Z,21.80
2023-03-21T16:42:27.548Z,20.53
2023-03-21T16:44:56.092Z,22.30
2023-03-21T16:47:25.567Z,19.70
2023-03-21T16:49:54.029Z,19.83
2023-03-21T16:52:24.504Z,22.60
2023-03-21T16:54:55.867Z,21.10
2023-03-21T16:57:29.670Z,23.33
2023-03-21T16:59:58.344Z,19.20
2023-03-21T17:02:29.940Z,21.00
2023-03-21T17:04:58.535Z,22.80
2023-03-21T17:07:28.201Z,27.37
2023-03-21T17:09:58.318Z,21.63
2023-03-21T17:12:26.988Z,23.17
2023-03-21T17:14:55.562Z,23.07
2023-03-21T17:17:24.050Z,21.97
2023-03-21T17:19:52.945Z,19.50
2023-03-21T17:22:21.685Z,20.53
2023-03-21T17:24:51.088Z,18.87
2023-03-21T17:27:21.375Z,20.27
2023-03-21T17:29:51.064Z,22.07
2023-03-21T17:32:19.816Z,22.07
2023-03-21T17:34:53.208Z,21.27
2023-03-21T17:37:26.378Z,22.00
2023-03-21T17:39:55.206Z,24.20
2023-03-21T17:42:25.152Z,25.20
2023-03-21T17:44:53.754Z,27.40
2023-03-21T17:47:26.062Z,33.33
2023-03-21T17:49:54.608Z,35.07
2023-03-21T17:52:24.733Z,27.23
2023-03-21T17:54:53.325Z,23.50
2023-03-21T17:57:22.536Z,25.47
2023-03-21T17:59:52.860Z,23.10
2023-03-21T18:02:21.502Z,25.67
2023-03-21T18:04:50.306Z,28.10
2023-03-21T18:07:28.694Z,32.50
2023-03-21T18:10:08.811Z,30.60
2023-03-21T18:12:38.118Z,32.63
2023-03-21T18:15:14.321Z,37.07
2023-03-21T18:17:45.274Z,36.87
2023-03-21T18:20:17.517Z,39.93
2023-03-21T18:22:46.633Z,37.47
2023-03-21T18:25:16.531Z,41.23
2023-03-21T18:28:09.174Z,41.50
2023-03-21T18:30:56.481Z,40.80
2023-03-21T18:33:23.746Z,40.07
2023-03-21T18:35:58.839Z,40.50
2023-03-21T18:38:28.108Z,48.23
2023-03-21T18:40:57.177Z,40.40
2023-03-21T18:46:18.345Z,48.90
2023-03-21T18:48:49.227Z,46.70
2023-03-21T18:51:17.991Z,49.60
2023-03-21T18:53:46.619Z,42.43
2023-03-21T18:56:57.747Z,43.77
2023-03-21T18:59:04.935Z,45.97
2023-03-21T19:01:36.055Z,48.33
2023-03-21T19:04:23.122Z,41.60
2023-03-21T19:06:54.219Z,44.40
2023-03-21T19:09:29.618Z,45.30
2023-03-21T19:12:01.023Z,41.27
2023-03-21T19:14:29.479Z,44.30
2023-03-21T19:17:55.897Z,42.80
2023-03-21T19:19:49.376Z,48.23
2023-03-21T19:22:18.089Z,41.77
2023-03-21T19:24:47.170Z,43.40
2023-03-21T19:27:16.083Z,44.93
2023-03-21T19:29:57.024Z,41.57
2023-03-21T19:32:33.119Z,43.60
2023-03-21T19:35:01.866Z,45.97
2023-03-21T19:37:30.868Z,50.03
2023-03-21T19:39:59.560Z,46.67
2023-03-21T19:42:30.710Z,49.97
2023-03-21T19:44:59.613Z,48.63
2023-03-21T19:47:28.802Z,43.87
2023-03-21T19:52:47.898Z,112.37
2023-03-21T19:55:17.605Z,148.17
2023-03-21T19:57:48.658Z,285.17
2023-03-21T20:00:19.784Z,61.27
2023-03-21T20:02:48.617Z,68.67
2023-03-21T20:05:20.764Z,66.90
2023-03-21T20:07:50.273Z,71.00
2023-03-21T20:10:18.930Z,57.00
2023-03-21T20:12:47.624Z,51.67
2023-03-21T20:15:19.554Z,47.17
2023-03-21T20:17:51.032Z,44.97
2023-03-21T20:20:21.570Z,44.87
2023-03-21T20:23:06.111Z,45.90
2023-03-21T20:25:35.937Z,416.30
2023-03-21T20:28:26.031Z,166.30
2023-03-21T20:30:57.357Z,327.97
2023-03-21T20:33:26.251Z,55.70
2023-03-21T20:38:52.494Z,50.00
2023-03-21T20:41:21.291Z,49.57
2023-03-21T20:46:38.443Z,52.53
2023-03-21T20:49:08.115Z,49.93
2023-03-21T20:52:45.820Z,52.20
2023-03-21T20:54:26.991Z,50.50
2023-03-21T20:56:55.540Z,55.50
2023-03-21T20:59:27.594Z,53.63
2023-03-21T21:01:57.683Z,54.17
2023-03-21T21:04:46.872Z,55.40
2023-03-21T21:07:19.029Z,59.67
2023-03-21T21:09:48.459Z,57.97
2023-03-21T21:12:19.615Z,61.67
2023-03-21T21:14:49.352Z,61.07
2023-03-21T21:18:02.082Z,60.70
2023-03-21T21:20:17.163Z,56.07
2023-03-21T21:22:59.087Z,59.07
2023-03-21T21:25:31.075Z,53.23
2023-03-21T21:28:01.933Z,52.67
2023-03-21T21:30:31.901Z,51.07
2023-03-21T21:33:01.055Z,52.53
2023-03-21T21:35:29.933Z,54.90
2023-03-21T21:38:00.968Z,54.23
2023-03-21T21:40:29.855Z,53.90
2023-03-21T21:43:03.870Z,49.30
2023-03-21T21:45:34.192Z,51.43
2023-03-21T21:48:02.850Z,58.13
2023-03-21T21:50:31.483Z,54.63
2023-03-21T21:53:04.088Z,54.67
2023-03-21T21:55:33.045Z,52.60
2023-03-21T21:58:02.148Z,49.43
2023-03-21T22:00:32.332Z,45.70
2023-03-21T22:03:01.772Z,46.80
2023-03-21T22:05:30.585Z,52.77
2023-03-21T22:08:00.756Z,49.90
2023-03-21T22:10:29.279Z,49.13
2023-03-21T22:12:57.880Z,44.43
2023-03-21T22:15:26.938Z,52.27
2023-03-21T22:17:55.478Z,49.40
2023-03-21T22:20:24.270Z,48.80
2023-03-21T22:22:53.018Z,47.53
2023-03-21T22:25:22.982Z,45.17
2023-03-21T22:27:51.504Z,47.63
2023-03-21T22:30:20.348Z,41.57
2023-03-21T22:33:02.540Z,43.43
2023-03-21T22:35:34.981Z,40.07
2023-03-21T22:38:03.424Z,40.90
2023-03-21T22:40:33.300Z,40.83
2023-03-21T22:43:01.737Z,39.80
2023-03-21T22:45:30.278Z,40.47
2023-03-21T22:48:00.226Z,64.80
2023-03-21T22:50:29.363Z,138.73
2023-03-21T22:52:58.140Z,125.83
2023-03-21T22:55:26.602Z,90.53
2023-03-21T22:57:56.547Z,44.97
2023-03-21T23:00:25.448Z,40.87
2023-03-21T23:02:53.923Z,41.43
2023-03-21T23:05:22.568Z,40.00
2023-03-21T23:07:51.424Z,47.60
2023-03-21T23:10:20.324Z,49.13
2023-03-21T23:12:49.553Z,71.87
2023-03-21T23:15:19.628Z,121.13
2023-03-21T23:17:48.220Z,85.87
2023-03-21T23:20:16.910Z,87.20
2023-03-21T23:22:45.519Z,42.70
2023-03-21T23:25:14.204Z,43.73
2023-03-21T23:27:42.799Z,43.67
2023-03-21T23:30:11.731Z,47.27
2023-03-21T23:32:41.712Z,41.33
2023-03-21T23:35:11.134Z,45.00
2023-03-21T23:37:42.583Z,42.93
2023-03-21T23:40:12.779Z,44.23
2023-03-21T23:42:41.413Z,41.73
2023-03-21T23:45:10.891Z,45.27
2023-03-21T23:47:41.014Z,47.90
2023-03-21T23:50:11.886Z,49.10
2023-03-21T23:52:41.855Z,49.80
2023-03-21T23:55:11.366Z,42.73
2023-03-21T23:57:41.967Z,40.07
